Time;durP1;ratioP1;P1;durP2;ratioP2;P2;SDS_P1;SDS_P2;PMS_P1;PMS_P2;Temp;Humidity;BMP_temperature;BMP_pressure;BME280_temperature;BME280_humidity;BME280_pressure;Samples;Min_cycle;Max_cycle;Signal;HPM_P1;HPM_P2
2023/06/12 00:00:55;;;;;;;7.70;3.60;;;;;;;;;;4987843;28;101236;-73
2023/06/12 00:03:26;;;;;;;4.00;3.70;;;;;;;;;;4988219;28;99318;-73
2023/06/12 00:05:58;;;;;;;4.35;3.95;;;;;;;;;;4987561;28;100202;-73
2023/06/12 00:08:26;;;;;;;4.53;3.80;;;;;;;;;;4991646;28;99770;-73
2023/06/12 00:10:53;;;;;;;5.72;4.15;;;;;;;;;;4988018;28;99774;-73
2023/06/12 00:13:20;;;;;;;4.90;4.22;;;;;;;;;;4987103;28;99936;-73
2023/06/12 00:15:46;;;;;;;11.30;4.55;;;;;;;;;;4988147;28;99590;-73
2023/06/12 00:18:13;;;;;;;4.68;4.28;;;;;;;;;;4987744;28;100486;-73
2023/06/12 00:20:39;;;;;;;5.53;4.60;;;;;;;;;;4986500;28;99858;-74
2023/06/12 00:23:07;;;;;;;5.65;4.85;;;;;;;;;;4984980;28;100151;-74
2023/06/12 00:25:34;;;;;;;7.30;3.85;;;;;;;;;;4987725;28;100452;-73
2023/06/12 00:28:00;;;;;;;5.55;4.15;;;;;;;;;;4990388;28;99809;-73
2023/06/12 00:30:26;;;;;;;6.25;4.40;;;;;;;;;;4988123;28;99190;-73
2023/06/12 00:32:53;;;;;;;5.22;4.72;;;;;;;;;;4988020;28;98672;-73
2023/06/12 00:35:19;;;;;;;5.25;4.40;;;;;;;;;;4987031;28;99203;-73
2023/06/12 00:37:46;;;;;;;9.63;4.75;;;;;;;;;;4987524;28;98772;-73
2023/06/12 00:40:13;;;;;;;5.55;4.40;;;;;;;;;;4987893;28;99019;-73
2023/06/12 00:42:47;;;;;;;9.00;4.25;;;;;;;;;;4986336;28;99810;-73
2023/06/12 00:45:15;;;;;;;5.97;3.85;;;;;;;;;;4987469;28;98771;-73
2023/06/12 00:47:43;;;;;;;11.02;4.22;;;;;;;;;;4987323;28;99170;-73
2023/06/12 00:50:11;;;;;;;7.13;4.22;;;;;;;;;;4988252;28;99854;-73
2023/06/12 00:52:40;;;;;;;6.28;3.97;;;;;;;;;;4984853;28;99099;-74
2023/06/12 00:55:07;;;;;;;5.47;4.28;;;;;;;;;;4985214;28;102303;-74
2023/06/12 00:57:33;;;;;;;3.97;3.78;;;;;;;;;;4987541;28;98895;-74
2023/06/12 01:00:00;;;;;;;5.35;3.85;;;;;;;;;;4987477;28;99171;-73
2023/06/12 01:02:27;;;;;;;5.50;3.90;;;;;;;;;;4986578;28;100193;-74
2023/06/12 01:04:55;;;;;;;4.22;3.70;;;;;;;;;;4985665;28;99085;-74
2023/06/12 01:07:40;;;;;;;4.97;4.00;;;;;;;;;;4985483;28;101234;-74
2023/06/12 01:10:17;;;;;;;7.38;4.63;;;;;;;;;;4986550;28;99204;-74
2023/06/12 01:12:44;;;;;;;5.30;4.20;;;;;;;;;;4978784;28;99333;-73
2023/06/12 01:15:12;;;;;;;4.13;3.65;;;;;;;;;;4976602;28;102695;-74
2023/06/12 01:17:41;;;;;;;6.45;4.50;;;;;;;;;;4976470;28;99301;-74
2023/06/12 01:20:11;;;;;;;5.10;4.38;;;;;;;;;;4986287;28;98701;-73
2023/06/12 01:22:46;;;;;;;5.20;4.28;;;;;;;;;;4967438;28;101524;-74
2023/06/12 01:25:13;;;;;;;4.80;4.10;;;;;;;;;;4980580;28;100001;-74
2023/06/12 01:28:00;;;;;;;4.63;3.78;;;;;;;;;;4965932;28;99355;-74
2023/06/12 01:30:34;;;;;;;5.32;4.13;;;;;;;;;;4967591;28;98635;-74
2023/06/12 01:33:03;;;;;;;8.02;3.80;;;;;;;;;;4965351;28;101605;-74
2023/06/12 01:35:32;;;;;;;5.65;4.13;;;;;;;;;;4985739;28;101538;-74
2023/06/12 01:38:06;;;;;;;10.13;4.38;;;;;;;;;;4984100;28;99345;-74
2023/06/12 01:40:34;;;;;;;5.95;4.28;;;;;;;;;;4986894;28;101537;-74
2023/06/12 01:43:00;;;;;;;4.18;3.88;;;;;;;;;;4984980;28;100681;-74
2023/06/12 01:45:27;;;;;;;4.30;3.90;;;;;;;;;;4984763;28;101674;-74
2023/06/12 01:47:53;;;;;;;4.80;4.40;;;;;;;;;;4985718;28;101298;-73
2023/06/12 01:50:22;;;;;;;9.77;4.38;;;;;;;;;;4979865;28;101395;-74
2023/06/12 01:52:49;;;;;;;5.32;4.80;;;;;;;;;;4979429;28;99390;-73
2023/06/12 01:55:19;;;;;;;8.85;4.85;;;;;;;;;;4966978;28;101479;-74
2023/06/12 01:57:48;;;;;;;5.20;4.07;;;;;;;;;;4968564;28;99319;-74
2023/06/12 02:00:16;;;;;;;7.05;4.72;;;;;;;;;;4964607;28;98925;-74
2023/06/12 02:02:46;;;;;;;4.90;4.50;;;;;;;;;;4964974;28;99645;-74
2023/06/12 02:05:16;;;;;;;6.43;5.40;;;;;;;;;;4967550;28;100078;-74
2023/06/12 02:07:42;;;;;;;9.32;4.78;;;;;;;;;;4985863;28;100148;-75
2023/06/12 02:10:09;;;;;;;4.80;4.40;;;;;;;;;;4986193;28;100703;-75
2023/06/12 02:12:36;;;;;;;5.75;4.63;;;;;;;;;;4985376;28;101653;-74
2023/06/12 02:15:02;;;;;;;10.05;4.50;;;;;;;;;;4985920;28;101342;-74
2023/06/12 02:17:29;;;;;;;14.88;5.10;;;;;;;;;;4986799;28;99693;-74
2023/06/12 02:19:55;;;;;;;12.45;4.78;;;;;;;;;;4990177;28;98282;-74
2023/06/12 02:22:22;;;;;;;5.45;4.68;;;;;;;;;;4968599;28;102069;-74
2023/06/12 02:24:50;;;;;;;6.25;5.00;;;;;;;;;;4971122;28;99926;-74
2023/06/12 02:27:16;;;;;;;6.90;4.30;;;;;;;;;;4988454;28;99138;-74
2023/06/12 02:29:43;;;;;;;6.53;4.60;;;;;;;;;;4988436;28;99334;-74
2023/06/12 02:32:12;;;;;;;5.03;4.63;;;;;;;;;;4987950;28;100148;-74
2023/06/12 02:34:39;;;;;;;5.30;4.93;;;;;;;;;;4987686;28;100814;-74
2023/06/12 02:37:08;;;;;;;4.78;4.38;;;;;;;;;;4987646;28;102358;-73
2023/06/12 02:39:39;;;;;;;5.78;4.93;;;;;;;;;;4991506;28;98986;-74
2023/06/12 02:42:05;;;;;;;12.68;4.40;;;;;;;;;;4988342;28;99198;-73
2023/06/12 02:44:32;;;;;;;4.88;4.47;;;;;;;;;;4988604;28;100006;-74
2023/06/12 02:46:59;;;;;;;5.65;5.00;;;;;;;;;;4988063;28;100623;-74
2023/06/12 02:49:32;;;;;;;10.18;4.30;;;;;;;;;;4986755;28;101643;-73
2023/06/12 02:51:59;;;;;;;7.65;4.57;;;;;;;;;;4986030;28;101167;-74
2023/06/12 02:54:26;;;;;;;7.43;4.93;;;;;;;;;;4988657;28;99600;-74
2023/06/12 02:56:54;;;;;;;6.10;4.63;;;;;;;;;;4987692;28;101740;-74
2023/06/12 02:59:22;;;;;;;9.52;4.70;;;;;;;;;;4987487;28;100975;-74
2023/06/12 03:01:53;;;;;;;6.75;4.88;;;;;;;;;;4990542;28;99873;-74
2023/06/12 03:04:33;;;;;;;5.75;4.55;;;;;;;;;;4988038;28;101251;-73
2023/06/12 03:07:02;;;;;;;5.40;4.90;;;;;;;;;;4989155;28;99386;-74
2023/06/12 03:09:31;;;;;;;6.78;4.65;;;;;;;;;;4987315;28;101401;-74
2023/06/12 03:11:58;;;;;;;5.85;5.28;;;;;;;;;;4987384;28;101027;-74
2023/06/12 03:14:26;;;;;;;5.30;4.47;;;;;;;;;;4987647;28;101509;-74
2023/06/12 03:16:52;;;;;;;5.30;4.80;;;;;;;;;;4985798;28;101869;-74
2023/06/12 03:19:19;;;;;;;4.97;4.13;;;;;;;;;;4987191;28;101798;-74
2023/06/12 03:21:46;;;;;;;4.38;4.07;;;;;;;;;;4970668;28;100013;-74
2023/06/12 03:24:13;;;;;;;6.00;4.65;;;;;;;;;;4989800;28;99289;-74
2023/06/12 03:26:41;;;;;;;6.97;4.70;;;;;;;;;;4988005;28;101688;-74
2023/06/12 03:29:08;;;;;;;5.55;4.97;;;;;;;;;;4987434;28;100582;-74
2023/06/12 03:31:36;;;;;;;8.77;4.80;;;;;;;;;;4986681;28;101391;-74
2023/06/12 03:34:03;;;;;;;5.20;4.80;;;;;;;;;;4988892;28;98937;-74
2023/06/12 03:36:33;;;;;;;5.28;4.88;;;;;;;;;;4987117;28;100227;-74
2023/06/12 03:39:01;;;;;;;7.50;5.88;;;;;;;;;;4986999;28;101147;-74
2023/06/12 03:41:28;;;;;;;6.93;5.10;;;;;;;;;;4986284;28;100778;-74
2023/06/12 03:43:55;;;;;;;5.35;4.85;;;;;;;;;;4985795;28;100288;-73
2023/06/12 03:46:22;;;;;;;5.25;4.78;;;;;;;;;;4990641;28;99886;-74
2023/06/12 03:48:49;;;;;;;8.48;4.93;;;;;;;;;;4987322;28;99460;-72
2023/06/12 03:51:16;;;;;;;9.88;5.35;;;;;;;;;;4978383;28;100650;-74
2023/06/12 03:53:43;;;;;;;6.68;5.13;;;;;;;;;;4987340;28;101459;-74
2023/06/12 03:56:10;;;;;;;7.88;5.15;;;;;;;;;;4981990;28;101747;-74
2023/06/12 03:58:36;;;;;;;10.50;5.88;;;;;;;;;;4968220;28;98909;-74
2023/06/12 04:01:02;;;;;;;7.63;5.10;;;;;;;;;;4968377;28;98444;-74
2023/06/12 04:03:29;;;;;;;7.35;4.63;;;;;;;;;;4968425;28;99125;-74
2023/06/12 04:05:56;;;;;;;11.75;5.60;;;;;;;;;;4965603;28;99411;-73
2023/06/12 04:08:23;;;;;;;11.65;5.13;;;;;;;;;;4987638;28;99992;-74
2023/06/12 04:10:50;;;;;;;8.43;5.32;;;;;;;;;;4988347;28;98869;-74
2023/06/12 04:13:17;;;;;;;5.57;4.93;;;;;;;;;;4987390;28;98689;-74
2023/06/12 04:15:43;;;;;;;7.03;5.25;;;;;;;;;;4988437;28;99243;-74
2023/06/12 04:18:10;;;;;;;12.02;6.05;;;;;;;;;;4986579;28;101375;-74
2023/06/12 04:20:38;;;;;;;5.78;5.30;;;;;;;;;;4976791;28;102026;-74
2023/06/12 04:23:04;;;;;;;6.32;5.28;;;;;;;;;;4968107;28;98400;-74
2023/06/12 04:25:32;;;;;;;5.07;4.68;;;;;;;;;;4984647;28;98702;-72
2023/06/12 04:28:02;;;;;;;6.18;5.43;;;;;;;;;;4988769;28;99919;-72
2023/06/12 04:30:33;;;;;;;10.88;5.32;;;;;;;;;;4985712;28;100918;-72
2023/06/12 04:33:01;;;;;;;7.05;5.43;;;;;;;;;;4984444;28;102278;-72
2023/06/12 04:35:28;;;;;;;6.88;5.13;;;;;;;;;;4986321;28;101263;-72
2023/06/12 04:37:58;;;;;;;17.13;6.05;;;;;;;;;;4985851;28;99117;-72
2023/06/12 04:40:26;;;;;;;12.88;6.10;;;;;;;;;;4984651;28;100816;-72
2023/06/12 04:42:56;;;;;;;7.65;5.55;;;;;;;;;;4982326;28;101797;-72
2023/06/12 04:45:23;;;;;;;9.10;5.80;;;;;;;;;;4984749;28;101793;-72
2023/06/12 04:47:54;;;;;;;11.52;5.57;;;;;;;;;;4978978;28;101526;-72
2023/06/12 04:50:20;;;;;;;6.80;5.65;;;;;;;;;;4981402;28;99345;-72
2023/06/12 04:52:47;;;;;;;11.15;6.45;;;;;;;;;;4982860;28;100237;-72
2023/06/12 04:55:20;;;;;;;9.95;6.03;;;;;;;;;;4981216;28;100685;-72
2023/06/12 04:57:47;;;;;;;17.08;6.40;;;;;;;;;;4980839;28;101633;-75
2023/06/12 05:00:15;;;;;;;16.33;6.00;;;;;;;;;;4985545;28;100694;-73
2023/06/12 05:02:43;;;;;;;9.77;5.43;;;;;;;;;;4985240;28;100192;-74
2023/06/12 05:05:10;;;;;;;9.70;5.68;;;;;;;;;;4986060;28;102045;-73
2023/06/12 05:07:37;;;;;;;6.22;5.72;;;;;;;;;;4986015;28;100858;-74
2023/06/12 05:10:04;;;;;;;6.95;5.82;;;;;;;;;;4979312;28;101307;-73
2023/06/12 05:12:31;;;;;;;11.38;5.28;;;;;;;;;;4971839;28;101032;-73
2023/06/12 05:15:02;;;;;;;9.55;5.55;;;;;;;;;;4999737;28;100410;-73
2023/06/12 05:17:28;;;;;;;9.82;5.65;;;;;;;;;;4986452;28;98789;-72
2023/06/12 05:19:55;;;;;;;9.20;5.57;;;;;;;;;;4986560;28;99198;-73
2023/06/12 05:22:22;;;;;;;7.72;5.60;;;;;;;;;;4984967;28;100224;-72
2023/06/12 05:24:48;;;;;;;8.00;4.97;;;;;;;;;;4985815;28;101838;-73
2023/06/12 05:27:15;;;;;;;6.57;5.25;;;;;;;;;;4984783;28;101412;-76
2023/06/12 05:29:42;;;;;;;8.52;5.40;;;;;;;;;;4983616;28;99272;-74
2023/06/12 05:32:09;;;;;;;11.50;5.85;;;;;;;;;;4985001;28;101616;-75
2023/06/12 05:34:37;;;;;;;8.30;5.60;;;;;;;;;;4988938;28;101004;-75
2023/06/12 05:37:04;;;;;;;10.50;6.28;;;;;;;;;;4984884;28;101561;-75
2023/06/12 05:39:31;;;;;;;8.23;5.10;;;;;;;;;;4985292;28;98554;-75
2023/06/12 05:41:58;;;;;;;13.73;6.63;;;;;;;;;;4974307;28;101492;-75
2023/06/12 05:44:25;;;;;;;15.27;5.95;;;;;;;;;;4965714;28;99229;-75
2023/06/12 05:46:52;;;;;;;7.72;6.10;;;;;;;;;;4967081;28;99643;-74
2023/06/12 05:49:18;;;;;;;9.43;5.65;;;;;;;;;;4966831;28;99301;-74
2023/06/12 05:51:48;;;;;;;12.10;5.65;;;;;;;;;;4966239;28;98822;-75
2023/06/12 05:54:14;;;;;;;11.40;5.35;;;;;;;;;;4968282;28;101053;-77
2023/06/12 05:56:41;;;;;;;14.90;5.35;;;;;;;;;;4972313;28;99305;-74
2023/06/12 05:59:07;;;;;;;12.18;5.45;;;;;;;;;;4973113;28;101388;-76
2023/06/12 06:01:34;;;;;;;6.25;5.65;;;;;;;;;;4989450;28;99396;-78
2023/06/12 06:04:00;;;;;;;6.40;4.82;;;;;;;;;;4989774;28;100029;-76
2023/06/12 06:06:30;;;;;;;5.43;5.03;;;;;;;;;;4988244;28;101747;-76
2023/06/12 06:09:00;;;;;;;8.68;4.93;;;;;;;;;;4988004;28;101036;-75
2023/06/12 06:11:28;;;;;;;15.23;5.28;;;;;;;;;;4987537;28;100347;-74
2023/06/12 06:13:56;;;;;;;11.65;5.10;;;;;;;;;;4988135;28;101028;-75
2023/06/12 06:16:22;;;;;;;5.80;5.32;;;;;;;;;;4977235;28;99202;-75
2023/06/12 06:18:50;;;;;;;11.60;4.90;;;;;;;;;;4972558;28;101813;-79
2023/06/12 06:21:18;;;;;;;8.07;5.05;;;;;;;;;;4985217;28;101762;-79
2023/06/12 06:23:45;;;;;;;9.70;4.63;;;;;;;;;;4968847;28;101338;-79
2023/06/12 06:26:12;;;;;;;11.25;5.05;;;;;;;;;;4984685;28;99962;-79
2023/06/12 06:28:38;;;;;;;5.10;4.32;;;;;;;;;;4984999;28;101828;-79
2023/06/12 06:31:06;;;;;;;11.40;4.90;;;;;;;;;;4969871;28;98713;-78
2023/06/12 06:33:33;;;;;;;7.65;4.85;;;;;;;;;;4971677;28;99822;-79
2023/06/12 06:35:59;;;;;;;15.90;4.95;;;;;;;;;;4974798;28;101096;-79
2023/06/12 06:38:26;;;;;;;13.20;5.43;;;;;;;;;;4990543;28;100426;-79
2023/06/12 06:40:53;;;;;;;7.03;4.60;;;;;;;;;;4985889;28;101619;-78
2023/06/12 06:43:20;;;;;;;7.85;4.50;;;;;;;;;;4975697;28;101305;-78
2023/06/12 06:45:51;;;;;;;7.43;5.20;;;;;;;;;;4968681;28;101438;-78
2023/06/12 06:48:18;;;;;;;8.82;4.63;;;;;;;;;;4967514;28;101856;-78
2023/06/12 06:50:46;;;;;;;9.35;4.85;;;;;;;;;;4969267;28;101368;-79
2023/06/12 06:53:13;;;;;;;5.65;4.50;;;;;;;;;;4968586;28;100422;-79
2023/06/12 06:55:42;;;;;;;8.70;4.50;;;;;;;;;;4967920;28;101796;-79
2023/06/12 06:58:10;;;;;;;;;;;;;;;;;;4969411;28;101104;-79
2023/06/12 07:00:37;;;;;;;12.60;4.60;;;;;;;;;;4990022;28;117846;-79
2023/06/12 07:03:04;;;;;;;12.52;4.60;;;;;;;;;;4987916;28;99912;-79
2023/06/12 07:05:30;;;;;;;10.80;4.03;;;;;;;;;;4989147;28;98878;-79
2023/06/12 07:07:57;;;;;;;11.43;4.68;;;;;;;;;;4988262;28;98948;-79
2023/06/12 07:10:31;;;;;;;11.75;4.97;;;;;;;;;;4988103;28;99067;-79
2023/06/12 07:12:57;;;;;;;8.32;4.32;;;;;;;;;;4987558;28;100989;-80
2023/06/12 07:15:31;;;;;;;7.53;4.40;;;;;;;;;;4987497;28;101074;-81
2023/06/12 07:17:59;;;;;;;8.80;4.35;;;;;;;;;;4973528;28;101238;-81
2023/06/12 07:20:25;;;;;;;5.55;4.30;;;;;;;;;;4969962;28;99258;-80
2023/06/12 07:22:52;;;;;;;9.85;4.38;;;;;;;;;;4977361;28;100472;-82
2023/06/12 07:25:19;;;;;;;6.95;4.00;;;;;;;;;;4967552;28;102379;-80
2023/06/12 07:27:46;;;;;;;8.23;4.32;;;;;;;;;;4987654;28;101429;-80
2023/06/12 07:30:14;;;;;;;13.13;4.25;;;;;;;;;;4986986;28;101024;-80
2023/06/12 07:32:41;;;;;;;10.18;4.40;;;;;;;;;;4987955;28;101236;-80
2023/06/12 07:35:08;;;;;;;20.48;4.20;;;;;;;;;;4971849;28;99188;-80
2023/06/12 07:37:35;;;;;;;14.40;4.07;;;;;;;;;;4968097;28;98943;-81
2023/06/12 07:40:07;;;;;;;8.63;4.60;;;;;;;;;;4968202;28;100753;-80
2023/06/12 07:42:35;;;;;;;8.02;4.10;;;;;;;;;;4969082;28;99011;-75
2023/06/12 07:45:02;;;;;;;9.20;4.13;;;;;;;;;;4970524;28;101350;-81
2023/06/12 07:47:28;;;;;;;11.00;5.10;;;;;;;;;;4967354;28;102403;-78
2023/06/12 07:49:55;;;;;;;20.75;4.43;;;;;;;;;;4967875;28;100044;-78
2023/06/12 07:52:22;;;;;;;6.70;4.05;;;;;;;;;;4973987;28;99118;-76
2023/06/12 07:54:50;;;;;;;7.47;4.07;;;;;;;;;;4982158;28;100054;-75
2023/06/12 07:57:16;;;;;;;5.32;4.30;;;;;;;;;;4987543;28;99112;-78
2023/06/12 07:59:44;;;;;;;7.80;3.67;;;;;;;;;;4988846;28;98967;-78
2023/06/12 08:02:11;;;;;;;10.77;4.40;;;;;;;;;;4986473;28;100146;-78
2023/06/12 08:04:40;;;;;;;8.32;4.03;;;;;;;;;;4986630;28;99009;-78
2023/06/12 08:07:11;;;;;;;8.48;4.00;;;;;;;;;;4990445;28;101025;-78
2023/06/12 08:09:41;;;;;;;6.90;4.22;;;;;;;;;;4984622;28;99931;-78
2023/06/12 08:12:11;;;;;;;;;;;;;;;;;;4985597;28;101248;-78
2023/06/12 08:14:38;;;;;;;9.52;4.25;;;;;;;;;;4981244;28;114757;-77
2023/06/12 08:17:05;;;;;;;5.57;3.78;;;;;;;;;;4982592;28;101106;-77
2023/06/12 08:19:34;;;;;;;5.47;4.50;;;;;;;;;;4986310;28;101602;-78
2023/06/12 08:22:01;;;;;;;7.22;4.25;;;;;;;;;;4986646;28;101336;-78
2023/06/12 08:24:30;;;;;;;8.27;4.35;;;;;;;;;;4988454;28;98727;-78
2023/06/12 08:26:57;;;;;;;8.15;4.60;;;;;;;;;;4987081;28;100001;-77
2023/06/12 08:29:25;;;;;;;5.28;4.65;;;;;;;;;;4989573;28;100846;-77
2023/06/12 08:31:53;;;;;;;7.05;4.10;;;;;;;;;;4986927;28;100723;-78
2023/06/12 08:34:20;;;;;;;11.52;4.38;;;;;;;;;;4987466;28;99601;-76
2023/06/12 08:36:47;;;;;;;8.55;3.92;;;;;;;;;;4985283;28;101682;-78
2023/06/12 08:39:13;;;;;;;11.02;3.65;;;;;;;;;;4985276;28;99190;-79
2023/06/12 08:42:03;;;;;;;9.77;4.47;;;;;;;;;;4986664;28;99213;-80
2023/06/12 08:44:31;;;;;;;9.18;4.70;;;;;;;;;;4986452;28;101330;-77
2023/06/12 08:46:59;;;;;;;7.93;4.82;;;;;;;;;;4985560;28;101447;-78
2023/06/12 08:49:26;;;;;;;8.27;4.20;;;;;;;;;;4988854;28;99496;-79
2023/06/12 08:51:53;;;;;;;6.65;4.10;;;;;;;;;;4987895;28;99916;-78
2023/06/12 08:54:20;;;;;;;9.07;4.32;;;;;;;;;;4986542;28;98901;-78
2023/06/12 08:56:46;;;;;;;6.90;4.35;;;;;;;;;;4987244;28;98980;-78
2023/06/12 08:59:13;;;;;;;8.63;4.05;;;;;;;;;;4987169;28;99149;-78
2023/06/12 09:01:41;;;;;;;11.40;4.30;;;;;;;;;;4983020;28;101245;-78
2023/06/12 09:04:31;;;;;;;9.40;4.03;;;;;;;;;;4982034;28;100025;-77
2023/06/12 09:07:01;;;;;;;10.48;4.07;;;;;;;;;;4960857;28;99359;-78
2023/06/12 09:09:38;;;;;;;6.63;3.80;;;;;;;;;;4967023;28;100380;-77
2023/06/12 09:12:06;;;;;;;8.00;3.55;;;;;;;;;;4970713;28;98807;-78
2023/06/12 09:14:34;;;;;;;6.35;3.70;;;;;;;;;;4969375;28;100461;-77
2023/06/12 09:17:01;;;;;;;11.80;3.70;;;;;;;;;;4969875;28;99977;-77
2023/06/12 09:19:41;;;;;;;9.52;3.60;;;;;;;;;;4967711;28;100591;-77
2023/06/12 09:22:07;;;;;;;6.00;3.33;;;;;;;;;;4966040;28;101747;-77
2023/06/12 09:24:34;;;;;;;6.38;3.75;;;;;;;;;;4967193;28;100299;-77
2023/06/12 09:27:02;;;;;;;4.13;3.60;;;;;;;;;;4965815;28;99253;-77
2023/06/12 09:29:29;;;;;;;7.40;4.00;;;;;;;;;;4966339;28;99539;-77
2023/06/12 09:31:57;;;;;;;4.57;3.72;;;;;;;;;;4966847;28;100340;-77
2023/06/12 09:34:24;;;;;;;4.38;3.70;;;;;;;;;;4983912;28;100849;-77
2023/06/12 09:36:51;;;;;;;3.60;3.30;;;;;;;;;;4985999;28;99852;-77
2023/06/12 09:39:26;;;;;;;5.43;3.60;;;;;;;;;;4986402;28;99033;-78
2023/06/12 09:41:53;;;;;;;5.97;3.70;;;;;;;;;;4974135;28;100120;-73
2023/06/12 09:44:22;;;;;;;9.77;3.72;;;;;;;;;;4969876;28;100079;-77
2023/06/12 09:46:52;;;;;;;3.85;3.15;;;;;;;;;;4986841;28;99628;-77
2023/06/12 09:49:22;;;;;;;5.38;3.80;;;;;;;;;;4986174;28;100536;-77
2023/06/12 09:51:49;;;;;;;5.97;3.97;;;;;;;;;;4986661;28;99415;-78
2023/06/12 09:54:17;;;;;;;6.68;3.10;;;;;;;;;;4986348;28;100870;-79
2023/06/12 09:56:44;;;;;;;6.32;3.65;;;;;;;;;;4989665;28;99337;-77
2023/06/12 09:59:18;;;;;;;5.38;3.47;;;;;;;;;;4986761;28;98992;-76
2023/06/12 10:01:46;;;;;;;6.80;3.83;;;;;;;;;;4986976;28;99559;-76
2023/06/12 10:04:13;;;;;;;5.90;3.40;;;;;;;;;;4985751;28;100028;-76
2023/06/12 10:06:40;;;;;;;4.20;3.80;;;;;;;;;;4987590;28;99956;-76
2023/06/12 10:09:08;;;;;;;4.05;3.72;;;;;;;;;;4972448;28;99511;-75
2023/06/12 10:11:36;;;;;;;8.38;3.50;;;;;;;;;;4984420;28;99852;-75
2023/06/12 10:14:03;;;;;;;4.28;3.50;;;;;;;;;;4982001;28;99127;-75
2023/06/12 10:16:30;;;;;;;6.95;3.65;;;;;;;;;;4977375;28;101631;-76
2023/06/12 10:18:57;;;;;;;3.83;3.20;;;;;;;;;;4979838;28;99008;-76
2023/06/12 10:21:24;;;;;;;4.85;3.45;;;;;;;;;;4986246;28;99449;-76
2023/06/12 10:23:51;;;;;;;4.13;3.75;;;;;;;;;;4986261;28;99953;-77
2023/06/12 10:26:19;;;;;;;4.40;3.47;;;;;;;;;;4985407;28;100128;-77
2023/06/12 10:28:47;;;;;;;9.05;3.80;;;;;;;;;;4986391;28;100634;-76
2023/06/12 10:31:16;;;;;;;3.85;3.50;;;;;;;;;;4986118;28;100004;-76
2023/06/12 10:33:56;;;;;;;5.18;3.28;;;;;;;;;;4986147;28;100108;-76
2023/06/12 10:36:22;;;;;;;3.10;2.83;;;;;;;;;;4987925;28;100753;-76
2023/06/12 10:38:59;;;;;;;7.60;3.70;;;;;;;;;;4987732;28;99130;-77
2023/06/12 10:41:29;;;;;;;5.80;3.85;;;;;;;;;;4995555;28;99212;-75
2023/06/12 10:43:55;;;;;;;5.72;3.90;;;;;;;;;;5001549;28;99335;-77
2023/06/12 10:46:42;;;;;;;8.70;3.50;;;;;;;;;;4998174;28;99145;-76
2023/06/12 10:49:10;;;;;;;4.18;3.78;;;;;;;;;;4984715;28;100580;-76
2023/06/12 10:51:40;;;;;;;6.45;3.42;;;;;;;;;;4976150;28;98602;-76
2023/06/12 10:54:13;;;;;;;4.72;3.47;;;;;;;;;;4988319;28;100292;-75
2023/06/12 10:56:40;;;;;;;9.23;3.40;;;;;;;;;;4974964;28;100014;-76
2023/06/12 10:59:13;;;;;;;7.28;3.25;;;;;;;;;;4969766;28;99739;-75
2023/06/12 11:01:41;;;;;;;4.68;3.65;;;;;;;;;;4988135;28;99014;-75
2023/06/12 11:04:07;;;;;;;4.38;3.42;;;;;;;;;;4985380;28;100190;-72
2023/06/12 11:06:34;;;;;;;4.78;4.35;;;;;;;;;;4986803;28;99439;-74
2023/06/12 11:09:07;;;;;;;5.65;3.95;;;;;;;;;;4968846;28;99284;-74
2023/06/12 11:11:34;;;;;;;7.63;3.70;;;;;;;;;;4989961;28;99146;-76
2023/06/12 11:14:01;;;;;;;6.43;3.97;;;;;;;;;;4987231;28;98927;-74
2023/06/12 11:16:30;;;;;;;6.40;5.85;;;;;;;;;;4989216;28;100131;-75
2023/06/12 11:19:04;;;;;;;5.75;3.95;;;;;;;;;;4987003;28;99916;-75
2023/06/12 11:21:30;;;;;;;4.18;3.55;;;;;;;;;;4986186;28;99926;-74
2023/06/12 11:24:03;;;;;;;6.03;4.35;;;;;;;;;;4989095;28;99693;-75
2023/06/12 11:26:32;;;;;;;10.48;4.07;;;;;;;;;;4987451;28;99444;-74
2023/06/12 11:29:19;;;;;;;5.70;4.32;;;;;;;;;;4985874;28;100214;-74
2023/06/12 11:31:50;;;;;;;7.50;3.85;;;;;;;;;;4987129;28;100342;-75
2023/06/12 11:34:17;;;;;;;5.03;3.70;;;;;;;;;;4985595;28;99637;-74
2023/06/12 11:36:44;;;;;;;4.03;3.63;;;;;;;;;;4987871;28;99646;-74
2023/06/12 11:39:17;;;;;;;3.90;3.60;;;;;;;;;;4986741;28;99983;-74
2023/06/12 11:41:48;;;;;;;5.60;3.55;;;;;;;;;;4987639;28;99541;-75
2023/06/12 11:44:15;;;;;;;3.70;3.50;;;;;;;;;;4984811;28;100632;-74
2023/06/12 11:46:42;;;;;;;5.20;3.97;;;;;;;;;;4991212;28;100039;-74
2023/06/12 11:49:09;;;;;;;3.58;3.35;;;;;;;;;;4987558;28;99510;-74
2023/06/12 11:51:39;;;;;;;4.20;3.88;;;;;;;;;;4985199;28;99815;-75
2023/06/12 11:54:07;;;;;;;6.68;3.30;;;;;;;;;;4988466;28;99935;-75
2023/06/12 11:56:33;;;;;;;4.88;3.63;;;;;;;;;;4971941;28;101154;-74
2023/06/12 11:59:02;;;;;;;4.43;4.13;;;;;;;;;;4983908;28;98823;-74
2023/06/12 12:01:36;;;;;;;4.32;3.88;;;;;;;;;;4986011;28;99039;-74
2023/06/12 12:04:04;;;;;;;4.22;3.92;;;;;;;;;;4986680;28;100550;-74
2023/06/12 12:06:31;;;;;;;4.30;3.95;;;;;;;;;;4988186;28;99919;-75
2023/06/12 12:08:58;;;;;;;4.18;3.78;;;;;;;;;;4990640;28;99322;-74
2023/06/12 12:11:28;;;;;;;3.40;3.20;;;;;;;;;;4987549;28;98753;-75
2023/06/12 12:14:00;;;;;;;4.07;3.65;;;;;;;;;;4988649;28;99986;-75
2023/06/12 12:16:28;;;;;;;3.58;3.28;;;;;;;;;;4986148;28;99170;-75
2023/06/12 12:18:56;;;;;;;5.53;3.50;;;;;;;;;;4987517;28;98978;-74
2023/06/12 12:21:23;;;;;;;3.55;3.35;;;;;;;;;;4985423;28;100229;-76
2023/06/12 12:23:51;;;;;;;5.22;3.55;;;;;;;;;;4976659;28;99502;-75
2023/06/12 12:26:18;;;;;;;3.88;3.60;;;;;;;;;;4987045;28;99113;-75
2023/06/12 12:28:45;;;;;;;3.90;3.47;;;;;;;;;;4974917;28;98906;-75
2023/06/12 12:31:11;;;;;;;9.10;3.65;;;;;;;;;;4982124;28;99921;-75
2023/06/12 12:33:38;;;;;;;3.50;3.30;;;;;;;;;;4986596;28;100030;-75
2023/06/12 12:36:04;;;;;;;3.97;3.60;;;;;;;;;;4987588;28;100169;-74
2023/06/12 12:38:31;;;;;;;6.88;3.95;;;;;;;;;;4987407;28;100691;-74
2023/06/12 12:40:59;;;;;;;5.75;4.00;;;;;;;;;;4987766;28;98965;-74
2023/06/12 12:43:25;;;;;;;4.20;3.40;;;;;;;;;;4980623;28;99899;-75
2023/06/12 12:45:52;;;;;;;8.80;3.75;;;;;;;;;;4983069;28;99999;-75
2023/06/12 12:48:18;;;;;;;6.13;3.58;;;;;;;;;;4987239;28;100806;-75
2023/06/12 12:50:45;;;;;;;3.75;3.28;;;;;;;;;;4982243;28;99329;-75
2023/06/12 12:53:31;;;;;;;3.45;3.25;;;;;;;;;;4985096;28;98545;-76
2023/06/12 12:55:57;;;;;;;4.20;3.85;;;;;;;;;;4984291;28;99424;-74
2023/06/12 12:58:24;;;;;;;3.88;3.55;;;;;;;;;;4987625;28;99908;-75
2023/06/12 13:00:51;;;;;;;3.97;3.63;;;;;;;;;;4986652;28;99911;-75
2023/06/12 13:03:18;;;;;;;4.47;4.10;;;;;;;;;;4976945;28;100229;-75
2023/06/12 13:05:45;;;;;;;4.00;3.70;;;;;;;;;;4973871;28;100290;-75
2023/06/12 13:08:12;;;;;;;4.40;4.03;;;;;;;;;;4974693;28;98864;-75
2023/06/12 13:10:38;;;;;;;8.23;3.90;;;;;;;;;;4982356;28;101215;-75
2023/06/12 13:13:05;;;;;;;3.72;3.42;;;;;;;;;;4974762;28;101643;-75
2023/06/12 13:15:31;;;;;;;3.85;3.60;;;;;;;;;;4985091;28;100616;-75
2023/06/12 13:17:58;;;;;;;3.95;3.60;;;;;;;;;;4985201;28;100062;-75
2023/06/12 13:20:25;;;;;;;5.35;3.90;;;;;;;;;;4970984;28;99683;-76
2023/06/12 13:22:51;;;;;;;5.60;3.97;;;;;;;;;;4976200;28;100312;-76
2023/06/12 13:25:18;;;;;;;5.90;4.35;;;;;;;;;;4983255;28;100041;-77
2023/06/12 13:27:45;;;;;;;6.57;3.85;;;;;;;;;;4983453;28;100115;-77
2023/06/12 13:30:12;;;;;;;9.25;7.07;;;;;;;;;;4984750;28;100612;-77
2023/06/12 13:32:39;;;;;;;6.18;3.78;;;;;;;;;;4985878;28;99087;-78
2023/06/12 13:35:07;;;;;;;3.80;3.60;;;;;;;;;;4987479;28;99912;-77
2023/06/12 13:37:36;;;;;;;6.90;4.30;;;;;;;;;;4985687;28;99999;-76
2023/06/12 13:40:03;;;;;;;4.63;4.22;;;;;;;;;;4986088;28;99939;-76
2023/06/12 13:42:30;;;;;;;4.13;3.83;;;;;;;;;;4983051;28;100754;-75
2023/06/12 13:44:57;;;;;;;5.13;4.35;;;;;;;;;;4980669;28;99972;-76
2023/06/12 13:47:23;;;;;;;5.50;4.30;;;;;;;;;;4975504;28;100260;-77
2023/06/12 13:49:50;;;;;;;6.43;4.40;;;;;;;;;;4985321;28;101454;-76
2023/06/12 13:52:16;;;;;;;4.38;3.80;;;;;;;;;;4979452;28;100001;-77
2023/06/12 13:54:43;;;;;;;8.10;4.05;;;;;;;;;;4985823;28;99341;-75
2023/06/12 13:57:09;;;;;;;4.65;4.05;;;;;;;;;;4973011;28;99407;-75
2023/06/12 13:59:35;;;;;;;5.60;3.78;;;;;;;;;;4982325;28;100183;-75
2023/06/12 14:02:02;;;;;;;4.03;3.72;;;;;;;;;;4985766;28;100102;-75
2023/06/12 14:04:29;;;;;;;5.20;3.92;;;;;;;;;;4973862;28;100084;-75
2023/06/12 14:06:58;;;;;;;8.95;3.88;;;;;;;;;;4972163;28;99895;-75
2023/06/12 14:09:24;;;;;;;6.45;3.47;;;;;;;;;;4980254;28;100221;-76
2023/06/12 14:11:53;;;;;;;6.95;3.80;;;;;;;;;;4982292;28;99180;-75
2023/06/12 14:14:20;;;;;;;4.35;3.65;;;;;;;;;;4973092;28;99466;-75
2023/06/12 14:16:47;;;;;;;4.88;3.42;;;;;;;;;;4988526;28;99292;-75
2023/06/12 14:19:14;;;;;;;7.85;4.22;;;;;;;;;;4991522;28;99418;-76
2023/06/12 14:21:40;;;;;;;4.30;4.00;;;;;;;;;;4989057;28;100289;-76
2023/06/12 14:24:07;;;;;;;7.80;3.97;;;;;;;;;;4985732;28;99319;-76
2023/06/12 14:26:43;;;;;;;3.55;3.35;;;;;;;;;;4983342;28;99808;-76
2023/06/12 14:29:11;;;;;;;6.88;3.95;;;;;;;;;;4988297;28;99884;-75
2023/06/12 14:31:38;;;;;;;5.50;3.67;;;;;;;;;;4987179;28;99040;-75
2023/06/12 14:34:05;;;;;;;6.03;4.43;;;;;;;;;;4988527;28;99127;-76
2023/06/12 14:36:31;;;;;;;5.55;3.50;;;;;;;;;;4986840;28;100457;-76
2023/06/12 14:38:58;;;;;;;6.72;4.10;;;;;;;;;;4979346;28;99869;-75
2023/06/12 14:41:24;;;;;;;4.25;3.97;;;;;;;;;;4980029;28;100547;-76